createdAt,value
2022-11-03T00:02:24.241Z,18.50
2022-11-03T00:04:50.788Z,18.60
2022-11-03T00:07:18.105Z,18.60
2022-11-03T00:09:44.552Z,18.60
2022-11-03T00:12:11.014Z,18.60
2022-11-03T00:14:37.473Z,18.70
2022-11-03T00:17:03.929Z,18.60
2022-11-03T00:31:00.164Z,18.50
2022-11-03T00:33:30.169Z,18.60
2022-11-03T00:36:00.381Z,18.50
2022-11-03T00:41:18.119Z,18.50
2022-11-03T00:43:48.191Z,18.40
2022-11-03T00:46:14.668Z,18.50
2022-11-03T00:48:41.153Z,18.50
2022-11-03T00:51:18.189Z,18.60
2022-11-03T00:53:44.689Z,18.50
2022-11-03T00:56:11.164Z,18.50
2022-11-03T00:58:42.197Z,18.50
2022-11-03T01:01:12.486Z,18.40
2022-11-03T01:03:39.088Z,18.40
2022-11-03T01:06:06.200Z,18.40
2022-11-03T01:08:48.208Z,18.50
2022-11-03T01:11:14.878Z,18.40
2022-11-03T01:13:41.346Z,18.40
2022-11-03T01:16:12.198Z,18.40
2022-11-03T01:21:22.653Z,18.50
2022-11-03T01:24:00.333Z,18.50
2022-11-03T01:29:16.967Z,18.40
2022-11-03T01:34:27.409Z,18.50
2022-11-03T01:36:53.872Z,18.50
2022-11-03T01:39:20.354Z,18.40
2022-11-03T01:42:00.403Z,18.40
2022-11-03T01:44:30.241Z,18.50
2022-11-03T01:47:00.420Z,18.50
2022-11-03T01:49:30.242Z,18.60
2022-11-03T01:51:56.714Z,18.40
2022-11-03T01:54:23.174Z,18.40
2022-11-03T01:59:42.246Z,18.50
2022-11-03T02:02:12.361Z,18.40
2022-11-03T02:07:30.248Z,18.40
2022-11-03T02:09:56.717Z,18.40
2022-11-03T02:12:23.197Z,18.40
2022-11-03T02:14:49.661Z,18.40
2022-11-03T02:17:16.141Z,18.40
2022-11-03T02:19:42.630Z,18.40
2022-11-03T02:25:04.563Z,18.40
2022-11-03T02:27:42.396Z,18.30
2022-11-03T02:35:49.854Z,18.40
2022-11-03T02:38:16.338Z,18.50
2022-11-03T02:40:48.290Z,18.40
2022-11-03T02:43:14.757Z,18.40
2022-11-03T02:45:41.243Z,18.40
2022-11-03T02:48:07.715Z,18.40
2022-11-03T02:56:15.025Z,18.40
2022-11-03T02:58:48.293Z,18.40
2022-11-03T03:01:15.037Z,18.40
2022-11-03T03:03:41.795Z,18.40
2022-11-03T03:06:12.301Z,18.40
2022-11-03T03:08:42.291Z,18.40
2022-11-03T03:11:08.769Z,18.50
2022-11-03T03:13:36.265Z,18.40
2022-11-03T03:16:02.753Z,18.40
2022-11-03T03:18:29.243Z,18.40
2022-11-03T03:20:55.720Z,18.40
2022-11-03T03:23:22.185Z,18.30
2022-11-03T03:25:54.325Z,18.40
2022-11-03T03:28:20.814Z,18.40
2022-11-03T03:30:48.313Z,18.50
2022-11-03T03:33:14.815Z,18.50
2022-11-03T03:38:32.169Z,18.60
2022-11-03T03:41:00.327Z,18.40
2022-11-03T03:43:36.320Z,18.40
2022-11-03T03:46:02.795Z,18.40
2022-11-03T03:48:29.275Z,18.30
2022-11-03T03:53:48.320Z,18.40
2022-11-03T03:59:04.770Z,18.40
2022-11-03T04:04:21.880Z,18.40
2022-11-03T04:06:54.369Z,18.40
2022-11-03T04:09:30.362Z,18.40
2022-11-03T04:11:56.855Z,18.40
2022-11-03T04:17:07.332Z,18.40
2022-11-03T04:19:42.406Z,18.40
2022-11-03T04:22:12.355Z,18.40
2022-11-03T04:24:42.370Z,18.40
2022-11-03T04:27:08.847Z,18.30
2022-11-03T04:29:35.313Z,18.40
2022-11-03T04:32:01.788Z,18.40
2022-11-03T04:34:28.256Z,18.50
2022-11-03T04:36:54.731Z,18.40
2022-11-03T04:39:30.485Z,18.40
2022-11-03T04:41:56.967Z,18.40
2022-11-03T04:44:30.563Z,18.40
2022-11-03T04:49:54.386Z,18.30
2022-11-03T04:52:24.372Z,18.30
2022-11-03T04:55:00.525Z,18.30
2022-11-03T04:57:27.003Z,18.40
2022-11-03T04:59:53.472Z,18.30
2022-11-03T05:05:12.409Z,18.40
2022-11-03T05:07:38.886Z,18.40
2022-11-03T05:10:06.386Z,18.40
2022-11-03T05:12:32.863Z,18.40
2022-11-03T05:15:00.354Z,18.40
2022-11-03T05:26:06.398Z,18.40
2022-11-03T05:28:32.878Z,18.40
2022-11-03T05:31:00.428Z,18.40
2022-11-03T05:33:30.432Z,18.40
2022-11-03T05:35:56.917Z,18.40
2022-11-03T05:38:23.377Z,18.40
2022-11-03T05:43:40.273Z,18.40
2022-11-03T05:48:38.155Z,18.40
2022-11-03T05:51:06.421Z,18.40
2022-11-03T05:56:17.005Z,18.30
2022-11-03T05:58:43.490Z,18.40
2022-11-03T06:01:09.978Z,18.30
2022-11-03T06:03:36.439Z,18.40
2022-11-03T06:06:06.453Z,18.40
2022-11-03T06:11:17.321Z,18.30
2022-11-03T06:13:48.636Z,18.50
2022-11-03T06:19:06.435Z,18.40
2022-11-03T06:21:40.483Z,18.30
2022-11-03T06:24:12.400Z,18.30
2022-11-03T06:29:29.325Z,18.30
2022-11-03T06:31:55.800Z,18.30
2022-11-03T06:34:22.286Z,18.40
2022-11-03T06:39:38.887Z,18.30
2022-11-03T06:42:06.466Z,18.30
2022-11-03T06:44:32.917Z,18.30
2022-11-03T06:49:50.102Z,18.40
2022-11-03T06:52:18.469Z,18.30
2022-11-03T06:54:46.047Z,18.40
2022-11-03T06:57:12.516Z,18.40
2022-11-03T06:59:57.014Z,18.40
2022-11-03T07:02:33.039Z,18.40
2022-11-03T07:05:00.452Z,18.40
2022-11-03T07:15:59.080Z,18.30
2022-11-03T07:18:25.546Z,18.20
2022-11-03T07:20:54.494Z,18.30
2022-11-03T07:23:20.963Z,18.30
2022-11-03T07:28:38.038Z,18.30
2022-11-03T07:31:04.512Z,18.40
2022-11-03T07:33:36.725Z,18.40
2022-11-03T07:36:15.623Z,18.30
2022-11-03T07:38:42.530Z,18.30
2022-11-03T07:41:12.520Z,18.40
2022-11-03T07:43:42.531Z,18.30
2022-11-03T07:49:00.596Z,18.40
2022-11-03T07:51:27.085Z,18.40
2022-11-03T07:53:53.583Z,18.40
2022-11-03T07:56:20.189Z,18.30
2022-11-03T07:58:48.479Z,18.40
2022-11-03T08:01:14.965Z,18.30
2022-11-03T08:03:42.488Z,18.40
2022-11-03T08:06:14.660Z,18.40
2022-11-03T08:08:54.705Z,18.40
2022-11-03T08:11:23.320Z,18.40
2022-11-03T08:14:00.566Z,18.50
2022-11-03T08:16:27.034Z,18.40
2022-11-03T08:18:53.525Z,18.40
2022-11-03T08:21:20.002Z,18.40
2022-11-03T08:23:47.836Z,18.40
2022-11-03T08:26:18.577Z,18.40
2022-11-03T08:28:54.624Z,18.50
2022-11-03T08:31:21.104Z,18.40
2022-11-03T08:33:47.564Z,18.40
2022-11-03T08:36:18.581Z,18.40
2022-11-03T08:38:48.643Z,18.50
2022-11-03T08:46:56.311Z,18.50
2022-11-03T08:49:22.776Z,18.50
2022-11-03T08:51:49.259Z,18.40
2022-11-03T08:54:15.743Z,18.40
2022-11-03T08:56:42.580Z,18.30
2022-11-03T08:59:09.052Z,18.40
2022-11-03T09:04:30.587Z,18.40
2022-11-03T09:06:57.092Z,18.40
2022-11-03T09:12:10.036Z,18.40
2022-11-03T09:14:36.505Z,18.40
2022-11-03T09:19:54.594Z,18.50
2022-11-03T09:22:24.609Z,18.50
2022-11-03T09:24:54.645Z,18.40
2022-11-03T09:27:21.156Z,18.40
2022-11-03T09:30:11.804Z,18.40
2022-11-03T09:32:34.094Z,18.40
2022-11-03T09:35:12.794Z,18.40
2022-11-03T09:37:42.629Z,18.50
2022-11-03T09:40:12.602Z,18.50
2022-11-03T09:42:42.801Z,18.50
2022-11-03T09:45:09.316Z,18.40
2022-11-03T09:47:35.781Z,18.40
2022-11-03T09:52:54.713Z,18.50
2022-11-03T09:58:12.528Z,18.40
2022-11-03T10:00:39.085Z,18.40
2022-11-03T10:03:06.881Z,18.50
2022-11-03T10:05:36.640Z,18.50
2022-11-03T10:08:06.673Z,18.40
2022-11-03T10:10:33.164Z,18.40
2022-11-03T10:12:59.645Z,18.40
2022-11-03T10:15:26.114Z,18.40
2022-11-03T10:17:54.593Z,18.50
2022-11-03T10:20:24.647Z,18.50
2022-11-03T10:22:54.813Z,18.50
2022-11-03T10:25:24.648Z,18.60
2022-11-03T10:27:54.862Z,18.50
2022-11-03T10:30:21.358Z,18.50
2022-11-03T10:32:48.619Z,18.50
2022-11-03T10:35:18.668Z,18.50
2022-11-03T10:37:54.678Z,18.50
2022-11-03T10:40:46.917Z,18.50
2022-11-03T10:48:48.675Z,18.50
2022-11-03T10:51:18.674Z,18.50
2022-11-03T10:53:45.158Z,18.50
2022-11-03T10:56:11.749Z,18.50
2022-11-03T10:58:38.192Z,18.50
2022-11-03T11:01:06.718Z,18.50
2022-11-03T11:03:42.694Z,18.50
2022-11-03T11:11:50.359Z,18.50
2022-11-03T11:14:24.716Z,18.50
2022-11-03T11:22:32.310Z,18.40
2022-11-03T11:25:06.902Z,18.40
2022-11-03T11:30:24.205Z,18.50
2022-11-03T11:33:00.739Z,18.50
2022-11-03T11:35:27.229Z,18.50
2022-11-03T11:37:54.670Z,18.50
2022-11-03T11:40:21.164Z,18.60
2022-11-03T11:42:48.673Z,18.50
2022-11-03T11:45:18.733Z,18.60
2022-11-03T11:47:48.933Z,18.60
2022-11-03T11:53:06.489Z,18.60
2022-11-03T11:58:23.091Z,18.60
2022-11-03T12:00:49.696Z,18.60
2022-11-03T12:03:24.962Z,18.60
2022-11-03T12:05:54.741Z,18.70
2022-11-03T12:08:21.221Z,18.70
2022-11-03T12:10:47.737Z,18.70
2022-11-03T12:13:16.984Z,18.70
2022-11-03T12:15:48.751Z,18.70
2022-11-03T12:18:15.216Z,18.60
2022-11-03T12:20:41.709Z,18.70
2022-11-03T12:23:12.817Z,18.60
2022-11-03T12:28:36.764Z,18.60
2022-11-03T12:31:03.274Z,18.60
2022-11-03T12:33:42.941Z,18.60
2022-11-03T12:36:12.753Z,18.60
2022-11-03T12:38:48.806Z,18.70
2022-11-03T12:41:15.339Z,18.70
2022-11-03T12:43:41.883Z,18.70
2022-11-03T12:46:12.776Z,18.70
2022-11-03T12:48:48.965Z,18.70
2022-11-03T12:51:15.440Z,18.70
2022-11-03T12:53:41.943Z,18.70
2022-11-03T12:56:12.770Z,18.70
2022-11-03T12:58:54.878Z,18.70
2022-11-03T13:01:21.528Z,18.80
2022-11-03T13:03:48.077Z,18.70
2022-11-03T13:11:55.356Z,18.80
2022-11-03T13:14:21.841Z,18.80
2022-11-03T13:16:48.310Z,18.70
2022-11-03T13:19:24.862Z,18.70
2022-11-03T13:24:42.793Z,18.70
2022-11-03T13:30:06.811Z,18.70
2022-11-03T13:35:17.351Z,18.70
2022-11-03T13:38:00.886Z,18.70
2022-11-03T13:46:00.824Z,18.80
2022-11-03T13:51:11.541Z,18.70
2022-11-03T13:59:28.500Z,18.70
2022-11-03T14:04:43.762Z,18.70
2022-11-03T14:07:10.856Z,18.70
2022-11-03T14:09:56.929Z,18.80
2022-11-03T14:12:24.574Z,18.70
2022-11-03T14:14:51.042Z,18.70
2022-11-03T14:17:17.518Z,18.70
2022-11-03T14:19:52.649Z,18.70
2022-11-03T14:30:54.859Z,18.70
2022-11-03T14:33:36.994Z,18.70
2022-11-03T14:41:44.409Z,18.70
2022-11-03T14:49:45.553Z,18.70
2022-11-03T14:52:12.786Z,18.60
2022-11-03T14:54:39.754Z,18.60
2022-11-03T14:57:06.279Z,18.60
2022-11-03T14:59:32.755Z,18.60
2022-11-03T15:01:59.400Z,18.70
2022-11-03T15:04:42.960Z,18.60
2022-11-03T15:10:00.340Z,18.70
2022-11-03T15:12:30.898Z,18.70
2022-11-03T15:15:01.102Z,18.70
2022-11-03T15:20:24.912Z,18.70
2022-11-03T15:25:42.893Z,18.70
2022-11-03T15:28:09.627Z,18.70
2022-11-03T15:30:36.243Z,18.70
2022-11-03T15:33:02.764Z,18.70
2022-11-03T15:35:30.948Z,18.70
2022-11-03T15:37:57.462Z,18.70
2022-11-03T15:40:24.911Z,18.70
2022-11-03T15:42:51.386Z,18.70
2022-11-03T15:45:17.880Z,18.70
2022-11-03T15:47:49.128Z,18.60
2022-11-03T15:50:15.606Z,18.70
2022-11-03T15:55:32.300Z,18.70
2022-11-03T15:58:00.882Z,18.60
2022-11-03T16:03:17.318Z,18.70
2022-11-03T16:05:43.904Z,18.60
2022-11-03T16:08:10.849Z,18.60
2022-11-03T16:10:50.579Z,18.60
2022-11-03T16:13:37.020Z,18.60
2022-11-03T16:16:06.938Z,18.60
2022-11-03T16:18:43.069Z,18.60
2022-11-03T16:24:00.365Z,18.60
2022-11-03T16:29:18.964Z,18.60
2022-11-03T16:31:48.967Z,18.60
2022-11-03T16:34:19.019Z,18.50
2022-11-03T16:36:45.501Z,18.50
2022-11-03T16:39:11.961Z,18.50
2022-11-03T16:44:30.977Z,18.50
2022-11-03T16:46:57.465Z,18.60
2022-11-03T16:49:24.941Z,18.50
2022-11-03T16:51:51.430Z,18.50
2022-11-03T16:54:17.907Z,18.50
2022-11-03T16:56:54.351Z,18.50
2022-11-03T16:59:21.267Z,18.50
2022-11-03T17:01:49.035Z,18.50
2022-11-03T17:04:19.168Z,18.50
2022-11-03T17:06:48.994Z,18.50
2022-11-03T17:09:19.190Z,18.50
2022-11-03T17:11:45.660Z,18.50
2022-11-03T17:14:12.122Z,18.50
2022-11-03T17:16:42.996Z,18.50
2022-11-03T17:19:09.489Z,18.40
2022-11-03T17:21:35.980Z,18.40
2022-11-03T17:24:02.466Z,18.50
2022-11-03T17:26:28.935Z,18.50
2022-11-03T17:34:30.587Z,18.50
2022-11-03T17:36:57.066Z,18.50
2022-11-03T17:39:23.590Z,18.50
2022-11-03T17:41:50.061Z,18.50
2022-11-03T17:47:00.805Z,18.40
2022-11-03T17:49:30.997Z,18.40
2022-11-03T17:51:57.481Z,18.40
2022-11-03T17:54:25.029Z,18.40
2022-11-03T17:56:51.492Z,18.40
2022-11-03T17:59:17.967Z,18.40
2022-11-03T18:01:44.534Z,18.40
2022-11-03T18:07:01.436Z,18.40
2022-11-03T18:09:31.040Z,18.40
2022-11-03T18:11:57.519Z,18.40
2022-11-03T18:14:25.020Z,18.40
2022-11-03T18:16:51.488Z,18.40
2022-11-03T18:19:19.035Z,18.50
2022-11-03T18:21:45.529Z,18.40
2022-11-03T18:24:13.007Z,18.50
2022-11-03T18:26:43.057Z,18.50
2022-11-03T18:29:09.581Z,18.50
2022-11-03T18:31:36.096Z,18.40
2022-11-03T18:34:07.179Z,18.40
2022-11-03T18:39:25.066Z,18.40
2022-11-03T18:41:51.556Z,18.50
2022-11-03T18:44:19.036Z,18.30
2022-11-03T18:46:45.515Z,18.40
2022-11-03T18:49:12.004Z,18.50
2022-11-03T18:51:38.480Z,18.40
2022-11-03T18:54:05.031Z,18.40
2022-11-03T18:56:38.289Z,18.40
2022-11-03T18:59:04.925Z,18.40
2022-11-03T19:01:37.284Z,18.40
2022-11-03T19:04:03.938Z,18.40
2022-11-03T19:06:31.088Z,18.40
2022-11-03T19:09:07.198Z,18.40
2022-11-03T19:11:33.684Z,18.40
2022-11-03T19:16:55.729Z,18.40
2022-11-03T19:19:30.579Z,18.40
2022-11-03T19:21:57.087Z,18.40
2022-11-03T19:24:23.550Z,18.40
2022-11-03T19:26:55.104Z,18.40
2022-11-03T19:29:25.268Z,18.40
2022-11-03T19:31:55.107Z,18.40
2022-11-03T19:34:21.579Z,18.40
2022-11-03T19:36:48.050Z,18.50
2022-11-03T19:39:14.529Z,18.50
2022-11-03T19:41:43.101Z,18.40
2022-11-03T19:44:13.325Z,18.40
2022-11-03T19:46:39.979Z,18.40
2022-11-03T19:49:06.444Z,18.40
2022-11-03T19:51:32.940Z,18.40
2022-11-03T19:54:01.080Z,18.40
2022-11-03T19:59:19.134Z,18.40
2022-11-03T20:01:45.758Z,18.40
2022-11-03T20:04:12.273Z,18.40
2022-11-03T20:09:31.135Z,18.40
2022-11-03T20:11:57.602Z,18.40
2022-11-03T20:14:25.113Z,18.30
2022-11-03T20:16:51.639Z,18.40
2022-11-03T20:19:18.119Z,18.40
2022-11-03T20:24:35.519Z,18.40
2022-11-03T20:27:02.006Z,18.40
2022-11-03T20:29:34.573Z,18.50
2022-11-03T20:32:01.310Z,18.40
2022-11-03T20:34:43.190Z,18.40
2022-11-03T20:37:09.656Z,18.40
2022-11-03T20:39:36.125Z,18.40
2022-11-03T20:42:02.616Z,18.40
2022-11-03T20:44:37.271Z,18.40
2022-11-03T20:47:03.780Z,18.40
2022-11-03T20:49:30.263Z,18.30
2022-11-03T21:03:37.815Z,18.40
2022-11-03T21:06:11.632Z,18.40
2022-11-03T21:08:43.195Z,18.30
2022-11-03T21:11:09.657Z,18.40
2022-11-03T21:13:36.131Z,18.30
2022-11-03T21:16:23.597Z,18.40
2022-11-03T21:18:55.200Z,18.40
2022-11-03T21:21:25.191Z,18.40
2022-11-03T21:23:51.658Z,18.40
2022-11-03T21:26:18.122Z,18.40
2022-11-03T21:31:35.528Z,18.40
2022-11-03T21:34:02.004Z,18.40
2022-11-03T21:36:31.160Z,18.40
2022-11-03T21:39:01.200Z,18.40
2022-11-03T21:41:31.230Z,18.30
2022-11-03T21:43:57.709Z,18.30
2022-11-03T21:49:14.542Z,18.50
2022-11-03T21:54:37.228Z,18.30
2022-11-03T21:57:03.744Z,18.40
2022-11-03T21:59:37.380Z,18.40
2022-11-03T22:02:03.993Z,18.40
2022-11-03T22:04:31.185Z,18.30
2022-11-03T22:06:57.641Z,18.40
2022-11-03T22:09:25.244Z,18.30
2022-11-03T22:11:51.694Z,18.30
2022-11-03T22:14:18.167Z,18.30
2022-11-03T22:16:49.275Z,18.30
2022-11-03T22:22:06.474Z,18.20
2022-11-03T22:24:32.932Z,18.30
2022-11-03T22:27:01.198Z,18.20
2022-11-03T22:32:18.490Z,18.20
2022-11-03T22:34:44.977Z,18.10
2022-11-03T22:37:11.447Z,18.20
2022-11-03T22:39:37.918Z,18.20
2022-11-03T22:42:07.327Z,18.20
2022-11-03T22:44:37.258Z,18.10
2022-11-03T22:47:14.572Z,18.10
2022-11-03T22:49:49.255Z,18.30
2022-11-03T22:52:25.381Z,18.30
2022-11-03T22:54:55.280Z,18.30
2022-11-03T22:57:21.738Z,18.20
2022-11-03T23:05:28.740Z,18.00
2022-11-03T23:08:01.284Z,18.10
2022-11-03T23:10:31.314Z,18.00
2022-11-03T23:12:57.799Z,18.00
2022-11-03T23:15:24.265Z,18.00
2022-11-03T23:17:55.306Z,17.90
2022-11-03T23:20:21.793Z,17.90
2022-11-03T23:23:01.296Z,17.80
2022-11-03T23:25:31.288Z,17.90
2022-11-03T23:27:57.751Z,17.90
2022-11-03T23:30:25.313Z,17.90
2022-11-03T23:33:07.755Z,17.80
2022-11-03T23:35:37.947Z,17.70
2022-11-03T23:38:07.471Z,17.50
2022-11-03T23:40:34.144Z,17.40
2022-11-03T23:43:00.620Z,17.30
2022-11-03T23:45:27.074Z,17.40
2022-11-03T23:47:53.565Z,17.50
2022-11-03T23:50:25.472Z,17.50
2022-11-03T23:52:51.948Z,17.50
2022-11-03T23:55:18.426Z,17.60
2022-11-03T23:57:44.901Z,17.70
